createdAt,value
2017-12-29T00:00:08.197Z,100602.25
2017-12-29T00:02:36.539Z,100599.78
2017-12-29T00:05:04.955Z,100596.07
2017-12-29T00:07:33.364Z,100603.50
2017-12-29T00:10:01.690Z,100600.37
2017-12-29T00:12:30.071Z,100601.08
2017-12-29T00:14:58.883Z,100604.91
2017-12-29T00:17:27.247Z,100605.06
2017-12-29T00:19:55.584Z,100597.22
2017-12-29T00:22:23.960Z,100610.60
2017-12-29T00:24:52.656Z,100603.42
2017-12-29T00:27:21.149Z,100602.81
2017-12-29T00:29:49.566Z,100611.56
2017-12-29T00:32:17.963Z,100610.94
2017-12-29T00:34:47.179Z,100615.80
2017-12-29T00:37:15.595Z,100622.08
2017-12-29T00:39:44.111Z,100610.66
2017-12-29T00:42:12.473Z,100614.05
2017-12-29T00:44:40.874Z,100612.23
2017-12-29T00:47:09.271Z,100612.23
2017-12-29T00:49:37.638Z,100613.97
2017-12-29T00:52:05.963Z,100619.58
2017-12-29T00:54:34.281Z,100608.85
2017-12-29T00:57:03.062Z,100611.55
2017-12-29T00:59:31.423Z,100614.70
2017-12-29T01:01:59.829Z,100619.80
2017-12-29T01:04:28.196Z,100620.30
2017-12-29T01:06:57.355Z,100618.23
2017-12-29T01:09:25.733Z,100625.75
2017-12-29T01:11:54.703Z,100620.91
2017-12-29T01:14:23.083Z,100624.12
2017-12-29T01:16:51.425Z,100610.41
2017-12-29T01:19:19.792Z,100618.77
2017-12-29T01:21:48.889Z,100618.27
2017-12-29T01:24:17.817Z,100629.33
2017-12-29T01:26:46.165Z,100629.98
2017-12-29T01:29:16.025Z,100628.73
2017-12-29T01:31:44.428Z,100631.81
2017-12-29T01:34:12.795Z,100631.31
2017-12-29T01:36:41.281Z,100635.85
2017-12-29T01:39:09.713Z,100635.61
2017-12-29T01:41:38.842Z,100635.11
2017-12-29T01:44:07.233Z,100626.69
2017-12-29T01:46:35.621Z,100633.05
2017-12-29T01:49:04.021Z,100641.63
2017-12-29T01:51:32.375Z,100643.10
2017-12-29T01:54:00.701Z,100636.59
2017-12-29T01:56:29.879Z,100636.42
2017-12-29T01:58:58.225Z,100645.34
2017-12-29T02:01:26.704Z,100638.39
2017-12-29T02:03:55.083Z,100634.52
2017-12-29T02:06:23.478Z,100634.52
2017-12-29T02:08:51.855Z,100636.99
2017-12-29T02:11:20.297Z,100628.98
2017-12-29T02:13:48.634Z,100626.69
2017-12-29T02:16:17.008Z,100627.93
2017-12-29T02:18:45.396Z,100626.11
2017-12-29T02:21:13.814Z,100625.11
2017-12-29T02:23:42.168Z,100631.88
2017-12-29T02:26:11.416Z,100624.78
2017-12-29T02:28:40.540Z,100629.98
2017-12-29T02:31:09.676Z,100629.98
2017-12-29T02:33:38.001Z,100633.03
2017-12-29T02:36:06.398Z,100624.45
2017-12-29T02:38:35.562Z,100621.62
2017-12-29T02:41:03.928Z,100628.47
2017-12-29T02:43:32.241Z,100623.70
2017-12-29T02:46:00.603Z,100618.75
2017-12-29T02:48:28.992Z,100620.90
2017-12-29T02:50:58.125Z,100619.16
2017-12-29T02:53:26.515Z,100601.16
2017-12-29T02:55:55.610Z,100595.05
2017-12-29T02:58:23.977Z,100603.06
2017-12-29T03:00:53.099Z,100593.41
2017-12-29T03:03:21.457Z,100590.63
2017-12-29T03:05:50.535Z,100589.20
2017-12-29T03:08:18.878Z,100580.29
2017-12-29T03:10:47.272Z,100583.73
2017-12-29T03:13:15.594Z,100582.50
2017-12-29T03:15:44.829Z,100579.97
2017-12-29T03:18:13.171Z,100587.37
2017-12-29T03:20:41.484Z,100583.02
2017-12-29T03:23:09.856Z,100581.59
2017-12-29T03:25:38.246Z,100581.35
2017-12-29T03:28:06.640Z,100577.31
2017-12-29T03:30:35.021Z,100589.19
2017-12-29T03:33:03.403Z,100585.80
2017-12-29T03:35:31.757Z,100587.95
2017-12-29T03:38:00.889Z,100585.89
2017-12-29T03:40:29.271Z,100589.69
2017-12-29T03:42:57.635Z,100596.13
2017-12-29T03:45:25.982Z,100595.54
2017-12-29T03:47:54.347Z,100595.12
2017-12-29T03:50:22.743Z,100599.66
2017-12-29T03:52:51.078Z,100595.39
2017-12-29T03:55:19.452Z,100597.27
2017-12-29T03:57:47.793Z,100605.52
2017-12-29T04:00:16.171Z,100600.33
2017-12-29T04:02:45.364Z,100606.03
2017-12-29T04:05:13.713Z,100610.88
2017-12-29T04:07:42.099Z,100607.08
2017-12-29T04:10:10.441Z,100617.81
2017-12-29T04:12:38.828Z,100626.56
2017-12-29T04:15:07.210Z,100620.87
2017-12-29T04:17:35.555Z,100622.09
2017-12-29T04:20:03.922Z,100618.80
2017-12-29T04:22:33.078Z,100617.02
2017-12-29T04:25:01.408Z,100617.68
2017-12-29T04:27:29.774Z,100607.52
2017-12-29T04:29:58.155Z,100601.66
2017-12-29T04:32:26.567Z,100600.75
2017-12-29T04:34:54.874Z,100594.56
2017-12-29T04:37:23.253Z,100590.28
2017-12-29T04:39:52.416Z,100597.11
2017-12-29T04:42:20.769Z,100602.20
2017-12-29T04:44:49.147Z,100603.34
2017-12-29T04:47:17.485Z,100602.19
2017-12-29T04:49:45.845Z,100588.63
2017-12-29T04:52:14.209Z,100587.13
2017-12-29T04:54:42.510Z,100587.85
2017-12-29T04:57:10.918Z,100595.81
2017-12-29T04:59:39.319Z,100595.89
2017-12-29T05:02:08.533Z,100592.97
2017-12-29T05:04:36.863Z,100602.42
2017-12-29T05:07:05.202Z,100601.38
2017-12-29T05:09:33.506Z,100596.16
2017-12-29T05:12:01.854Z,100592.80
2017-12-29T05:14:30.169Z,100595.52
2017-12-29T05:16:58.478Z,100604.62
2017-12-29T05:19:26.853Z,100592.05
2017-12-29T05:21:55.226Z,100599.95
2017-12-29T05:24:23.648Z,100600.73
2017-12-29T05:26:52.114Z,100606.37
2017-12-29T05:29:20.479Z,100607.27
2017-12-29T05:31:48.833Z,100609.52
2017-12-29T05:34:17.186Z,100604.33
2017-12-29T05:36:45.573Z,100599.84
2017-12-29T05:39:13.910Z,100603.56
2017-12-29T05:41:42.260Z,100609.95
2017-12-29T05:44:10.605Z,100601.45
2017-12-29T05:46:39.705Z,100605.42
2017-12-29T05:49:08.036Z,100593.73
2017-12-29T05:51:36.459Z,100601.59
2017-12-29T05:54:05.552Z,100609.06
2017-12-29T05:56:35.428Z,100605.95
2017-12-29T05:59:03.768Z,100605.06
2017-12-29T06:01:32.144Z,100604.83
2017-12-29T06:04:01.298Z,100611.00
2017-12-29T06:06:30.316Z,100608.25
2017-12-29T06:08:58.669Z,100614.34
2017-12-29T06:11:27.006Z,100609.97
2017-12-29T06:13:56.102Z,100603.39
2017-12-29T06:16:25.219Z,100605.39
2017-12-29T06:18:54.384Z,100602.75
2017-12-29T06:21:22.728Z,100597.48
2017-12-29T06:23:51.058Z,100599.11
2017-12-29T06:26:20.190Z,100595.16
2017-12-29T06:28:48.528Z,100586.20
2017-12-29T06:31:16.890Z,100592.78
2017-12-29T06:33:45.234Z,100590.16
2017-12-29T06:36:13.737Z,100594.74
2017-12-29T06:38:42.078Z,100594.96
2017-12-29T06:41:11.207Z,100606.95
2017-12-29T06:43:39.600Z,100597.48
2017-12-29T06:46:08.012Z,100600.25
2017-12-29T06:48:36.386Z,100601.11
2017-12-29T06:51:05.521Z,100597.34
2017-12-29T06:53:33.966Z,100588.26
2017-12-29T06:56:02.294Z,100579.56
2017-12-29T06:58:30.694Z,100574.62
2017-12-29T07:00:59.078Z,100578.67
2017-12-29T07:03:27.414Z,100579.60
2017-12-29T07:05:56.554Z,100575.64
2017-12-29T07:08:24.906Z,100576.56
2017-12-29T07:10:54.900Z,100568.21
2017-12-29T07:13:24.035Z,100560.79
2017-12-29T07:15:52.427Z,100563.52
2017-12-29T07:18:20.814Z,100555.19
2017-12-29T07:20:49.196Z,100548.98
2017-12-29T07:23:17.606Z,100548.86
2017-12-29T07:25:45.983Z,100545.35
2017-12-29T07:28:14.325Z,100542.14
2017-12-29T07:30:43.472Z,100545.55
2017-12-29T07:33:11.920Z,100541.41
2017-12-29T07:35:40.356Z,100538.09
2017-12-29T07:38:08.736Z,100534.16
2017-12-29T07:40:37.855Z,100528.63
2017-12-29T07:43:06.969Z,100522.54
2017-12-29T07:45:36.086Z,100526.00
2017-12-29T07:48:04.569Z,100520.18
2017-12-29T07:50:32.932Z,100519.08
2017-12-29T07:53:01.358Z,100508.67
2017-12-29T07:55:29.686Z,100497.64
2017-12-29T07:57:58.825Z,100493.14
2017-12-29T08:00:27.196Z,100490.70
2017-12-29T08:02:56.574Z,100483.84
2017-12-29T08:05:24.960Z,100481.00
2017-12-29T08:07:53.351Z,100491.92
2017-12-29T08:10:22.510Z,100482.66
2017-12-29T08:12:51.027Z,100475.94
2017-12-29T08:15:19.384Z,100473.12
2017-12-29T08:17:47.720Z,100465.28
2017-12-29T08:20:16.134Z,100463.05
2017-12-29T08:22:44.454Z,100455.17
2017-12-29T08:25:13.609Z,100447.33
2017-12-29T08:27:42.802Z,100446.31
2017-12-29T08:30:11.206Z,100438.92
2017-12-29T08:32:39.546Z,100435.02
2017-12-29T08:35:08.031Z,100433.74
2017-12-29T08:37:36.406Z,100429.09
2017-12-29T08:40:08.088Z,100415.03
2017-12-29T08:42:36.504Z,100420.19
2017-12-29T08:45:04.922Z,100413.05
2017-12-29T08:47:34.332Z,100418.75
2017-12-29T08:50:02.823Z,100430.89
2017-12-29T08:52:31.222Z,100419.69
2017-12-29T08:54:59.570Z,100419.97
2017-12-29T08:57:28.924Z,100410.37
2017-12-29T08:59:57.322Z,100398.24
2017-12-29T09:02:25.734Z,100406.73
2017-12-29T09:04:54.986Z,100409.47
2017-12-29T09:07:23.376Z,100397.08
2017-12-29T09:09:51.950Z,100398.07
2017-12-29T09:12:20.268Z,100402.06
2017-12-29T09:14:48.694Z,100392.20
2017-12-29T09:17:17.024Z,100383.64
2017-12-29T09:19:45.468Z,100368.83
2017-12-29T09:22:13.794Z,100370.81
2017-12-29T09:24:42.948Z,100368.36
2017-12-29T09:27:11.282Z,100373.21
2017-12-29T09:29:40.443Z,100356.82
2017-12-29T09:32:09.640Z,100357.09
2017-12-29T09:34:38.034Z,100343.41
2017-12-29T09:37:06.450Z,100341.49
2017-12-29T09:39:34.825Z,100324.44
2017-12-29T09:42:03.976Z,100316.17
2017-12-29T09:44:32.316Z,100319.97
2017-12-29T09:47:01.509Z,100305.05
2017-12-29T09:49:30.651Z,100301.17
2017-12-29T09:51:58.982Z,100297.52
2017-12-29T09:54:28.157Z,100286.95
2017-12-29T09:56:56.707Z,100275.95
2017-12-29T09:59:25.120Z,100277.02
2017-12-29T10:01:53.572Z,100267.37
2017-12-29T10:04:21.902Z,100271.98
2017-12-29T10:06:51.154Z,100254.21
2017-12-29T10:09:19.610Z,100259.69
2017-12-29T10:11:47.958Z,100246.30
2017-12-29T10:14:16.405Z,100245.26
2017-12-29T10:16:44.745Z,100244.77
2017-12-29T10:19:13.084Z,100224.69
2017-12-29T10:21:41.384Z,100220.23
2017-12-29T10:24:09.825Z,100218.16
2017-12-29T10:26:38.299Z,100208.17
2017-12-29T10:29:06.727Z,100216.20
2017-12-29T10:31:35.790Z,100214.38
2017-12-29T10:34:04.252Z,100203.14
2017-12-29T10:36:33.355Z,100196.06
2017-12-29T10:39:01.892Z,100185.43
2017-12-29T10:41:30.210Z,100177.31
2017-12-29T10:43:58.617Z,100160.57
2017-12-29T10:46:27.003Z,100163.11
2017-12-29T10:48:55.346Z,100153.51
2017-12-29T10:51:23.725Z,100137.25
2017-12-29T10:53:52.992Z,100129.82
2017-12-29T10:56:21.365Z,100119.90
2017-12-29T10:58:49.808Z,100124.63
2017-12-29T11:01:18.176Z,100114.94
2017-12-29T11:03:47.337Z,100121.43
2017-12-29T11:06:15.674Z,100106.59
2017-12-29T11:08:44.770Z,100108.66
2017-12-29T11:11:13.213Z,100100.81
2017-12-29T11:13:41.540Z,100107.33
2017-12-29T11:16:11.506Z,100090.77
2017-12-29T11:18:40.709Z,100080.98
2017-12-29T11:21:09.195Z,100082.06
2017-12-29T11:23:37.574Z,100074.59
2017-12-29T11:26:05.969Z,100072.55
2017-12-29T11:28:34.349Z,100049.16
2017-12-29T11:31:02.690Z,100068.34
2017-12-29T11:33:31.080Z,100049.95
2017-12-29T11:35:59.509Z,100044.59
2017-12-29T11:38:27.892Z,100034.94
2017-12-29T11:40:56.273Z,100034.21
2017-12-29T11:43:24.629Z,100021.89
2017-12-29T11:45:53.059Z,100009.27
2017-12-29T11:48:22.194Z,99996.16
2017-12-29T11:50:50.594Z,99998.36
2017-12-29T11:53:19.625Z,99982.34
2017-12-29T11:55:48.734Z,99965.06
2017-12-29T11:58:17.865Z,99965.98
2017-12-29T12:00:46.284Z,99964.77
2017-12-29T12:03:14.628Z,99943.92
2017-12-29T12:05:42.988Z,99937.09
2017-12-29T12:08:12.009Z,99929.64
2017-12-29T12:10:40.446Z,99915.63
2017-12-29T12:13:08.803Z,99914.95
2017-12-29T12:15:38.106Z,99900.70
2017-12-29T12:18:06.559Z,99891.23
2017-12-29T12:20:34.923Z,99878.56
2017-12-29T12:23:04.329Z,99883.91
2017-12-29T12:25:32.766Z,99867.55
2017-12-29T12:28:01.142Z,99861.30
2017-12-29T12:30:29.475Z,99847.27
2017-12-29T12:32:57.852Z,99848.67
2017-12-29T12:35:27.082Z,99838.44
2017-12-29T12:37:55.417Z,99827.48
2017-12-29T12:40:24.525Z,99815.81
2017-12-29T12:42:52.871Z,99813.58
2017-12-29T12:45:21.203Z,99792.89
2017-12-29T12:47:49.650Z,99792.21
2017-12-29T12:50:18.056Z,99760.47
2017-12-29T12:52:47.441Z,99770.52
2017-12-29T12:55:15.807Z,99761.28
2017-12-29T12:57:44.152Z,99746.05
2017-12-29T13:00:12.523Z,99739.31
2017-12-29T13:02:40.894Z,99740.25
2017-12-29T13:05:09.223Z,99720.97
2017-12-29T13:07:37.583Z,99713.57
2017-12-29T13:10:06.437Z,99724.94
2017-12-29T13:12:34.813Z,99724.94
2017-12-29T13:15:03.954Z,99697.16
2017-12-29T13:17:34.615Z,99691.97
2017-12-29T13:20:03.503Z,99685.38
2017-12-29T13:22:31.942Z,99677.64
2017-12-29T13:25:01.981Z,99667.89
2017-12-29T13:27:31.253Z,99662.92
2017-12-29T13:30:00.424Z,99647.14
2017-12-29T13:32:28.819Z,99650.69
2017-12-29T13:34:58.293Z,99635.98
2017-12-29T13:37:26.736Z,99634.12
2017-12-29T13:39:58.129Z,99634.84
2017-12-29T13:42:26.437Z,99621.23
2017-12-29T13:44:55.601Z,99614.59
2017-12-29T13:47:23.978Z,99612.08
2017-12-29T13:49:52.317Z,99600.05
2017-12-29T13:52:21.448Z,99593.50
2017-12-29T13:54:49.820Z,99583.09
2017-12-29T13:57:18.157Z,99596.11
2017-12-29T13:59:46.554Z,99586.16
2017-12-29T14:02:15.771Z,99596.19
2017-12-29T14:04:44.871Z,99574.98
2017-12-29T14:07:13.275Z,99583.64
2017-12-29T14:09:41.681Z,99583.33
2017-12-29T14:12:10.065Z,99576.65
2017-12-29T14:14:38.475Z,99565.11
2017-12-29T14:17:06.934Z,99558.70
2017-12-29T14:19:35.371Z,99553.52
2017-12-29T14:22:03.744Z,99544.53
2017-12-29T14:24:32.122Z,99549.39
2017-12-29T14:27:00.479Z,99539.17
2017-12-29T14:29:28.803Z,99526.33
2017-12-29T14:31:57.165Z,99530.83
2017-12-29T14:34:27.305Z,99514.34
2017-12-29T14:36:55.629Z,99514.80
2017-12-29T14:39:24.921Z,99494.14
2017-12-29T14:41:53.246Z,99479.56
2017-12-29T14:44:21.606Z,99488.92
2017-12-29T14:46:50.623Z,99499.59
2017-12-29T14:49:19.738Z,99483.20
2017-12-29T14:51:48.110Z,99486.15
2017-12-29T14:54:17.305Z,99485.06
2017-12-29T14:56:47.076Z,99484.57
2017-12-29T14:59:15.480Z,99478.30
2017-12-29T15:01:43.819Z,99463.21
2017-12-29T15:04:12.228Z,99473.98
2017-12-29T15:06:40.577Z,99453.81
2017-12-29T15:09:08.962Z,99460.63
2017-12-29T15:11:37.665Z,99456.89
2017-12-29T15:14:06.105Z,99451.44
2017-12-29T15:16:35.290Z,99439.77
2017-12-29T15:19:03.645Z,99431.59
2017-12-29T15:21:32.003Z,99435.77
2017-12-29T15:24:00.876Z,99424.85
2017-12-29T15:26:30.167Z,99416.57
2017-12-29T15:28:59.323Z,99412.53
2017-12-29T15:31:28.535Z,99403.44
2017-12-29T15:33:57.697Z,99396.97
2017-12-29T15:36:26.813Z,99391.83
2017-12-29T15:38:55.198Z,99396.92
2017-12-29T15:41:24.422Z,99395.64
2017-12-29T15:43:53.529Z,99387.34
2017-12-29T15:46:22.675Z,99380.29
2017-12-29T15:48:51.085Z,99394.39
2017-12-29T15:51:24.047Z,99385.69
2017-12-29T15:53:52.622Z,99372.53
2017-12-29T15:56:21.805Z,99392.77
2017-12-29T15:58:50.923Z,99387.89
2017-12-29T16:01:26.063Z,99395.24
2017-12-29T16:03:55.035Z,99389.68
2017-12-29T16:06:23.820Z,99383.62
2017-12-29T16:08:53.640Z,99392.54
2017-12-29T16:11:22.264Z,99392.16
2017-12-29T16:13:50.696Z,99385.88
2017-12-29T16:16:19.935Z,99374.13
2017-12-29T16:18:49.703Z,99373.75
2017-12-29T16:21:18.853Z,99373.73
2017-12-29T16:23:48.794Z,99375.50
2017-12-29T16:26:17.292Z,99389.95
2017-12-29T16:28:46.203Z,99382.14
2017-12-29T16:31:15.251Z,99382.17
2017-12-29T16:33:44.887Z,99369.41
2017-12-29T16:36:13.282Z,99378.17
2017-12-29T16:38:41.649Z,99381.30
2017-12-29T16:41:10.072Z,99376.45
2017-12-29T16:43:38.439Z,99369.88
2017-12-29T16:46:07.483Z,99383.70
2017-12-29T16:48:35.876Z,99392.03
2017-12-29T16:51:04.241Z,99401.70
2017-12-29T16:53:32.831Z,99403.36
2017-12-29T16:56:01.234Z,99392.50
2017-12-29T16:58:30.426Z,99392.32
2017-12-29T17:01:00.210Z,99407.78
2017-12-29T17:03:28.596Z,99395.62
2017-12-29T17:05:58.018Z,99390.38
2017-12-29T17:08:26.355Z,99396.27
2017-12-29T17:10:54.710Z,99402.72
2017-12-29T17:13:23.100Z,99409.23
2017-12-29T17:15:51.704Z,99414.63
2017-12-29T17:18:21.815Z,99403.95
2017-12-29T17:20:50.930Z,99407.61
2017-12-29T17:23:21.136Z,99414.63
2017-12-29T17:25:53.136Z,99407.01
2017-12-29T17:28:21.509Z,99394.50
2017-12-29T17:30:50.027Z,99396.45
2017-12-29T17:33:18.372Z,99399.41
2017-12-29T17:35:46.828Z,99412.53
2017-12-29T17:38:15.262Z,99413.05
2017-12-29T17:40:43.646Z,99405.23
2017-12-29T17:43:12.674Z,99413.66
2017-12-29T17:45:41.036Z,99411.53
2017-12-29T17:48:09.386Z,99422.73
2017-12-29T17:50:37.702Z,99424.57
2017-12-29T17:53:06.890Z,99415.32
2017-12-29T17:55:35.276Z,99419.88
2017-12-29T17:58:03.684Z,99404.55
2017-12-29T18:00:32.106Z,99412.50
2017-12-29T18:03:01.190Z,99416.26
2017-12-29T18:05:29.644Z,99413.91
2017-12-29T18:07:57.945Z,99423.91
2017-12-29T18:10:26.380Z,99425.02
2017-12-29T18:12:54.824Z,99417.18
2017-12-29T18:15:24.274Z,99420.02
2017-12-29T18:17:53.346Z,99437.54
2017-12-29T18:20:21.886Z,99441.59
2017-12-29T18:22:50.870Z,99434.27
2017-12-29T18:25:19.220Z,99449.01
2017-12-29T18:27:47.682Z,99442.49
2017-12-29T18:30:16.052Z,99455.09
2017-12-29T18:32:45.508Z,99461.11
2017-12-29T18:35:14.002Z,99460.87
2017-12-29T18:37:42.403Z,99472.09
2017-12-29T18:40:10.948Z,99479.59
2017-12-29T18:42:39.329Z,99488.36
2017-12-29T18:45:07.813Z,99488.13
2017-12-29T18:47:36.184Z,99491.28
2017-12-29T18:50:04.615Z,99498.42
2017-12-29T18:52:32.968Z,99500.42
2017-12-29T18:55:01.334Z,99500.42
2017-12-29T18:57:29.974Z,99511.84
2017-12-29T18:59:58.322Z,99516.33
2017-12-29T19:02:26.690Z,99505.78
2017-12-29T19:04:55.128Z,99526.89
2017-12-29T19:07:23.506Z,99527.81
2017-12-29T19:09:51.975Z,99511.08
2017-12-29T19:12:20.470Z,99574.81
2017-12-29T19:14:48.766Z,99550.83
2017-12-29T19:17:17.145Z,99540.72
2017-12-29T19:19:48.509Z,99551.33
2017-12-29T19:22:16.814Z,99541.83
2017-12-29T19:24:46.362Z,99554.08
2017-12-29T19:27:15.470Z,99551.09
2017-12-29T19:29:43.954Z,99565.16
2017-12-29T19:32:12.826Z,99553.83
2017-12-29T19:34:43.676Z,99564.44
2017-12-29T19:37:12.233Z,99559.61
2017-12-29T19:39:42.853Z,99563.58
2017-12-29T19:42:11.278Z,99566.44
2017-12-29T19:44:39.611Z,99567.86
2017-12-29T19:47:09.225Z,99596.34
2017-12-29T19:49:38.366Z,99552.50
2017-12-29T19:52:06.858Z,99590.06
2017-12-29T19:54:35.961Z,99587.91
2017-12-29T19:57:04.376Z,99603.63
2017-12-29T19:59:33.219Z,99602.41
2017-12-29T20:02:01.628Z,99604.70
2017-12-29T20:04:30.069Z,99609.59
2017-12-29T20:06:58.402Z,99607.75
2017-12-29T20:09:27.454Z,99609.95
2017-12-29T20:11:55.968Z,99619.35
2017-12-29T20:14:24.296Z,99613.31
2017-12-29T20:16:54.071Z,99621.27
2017-12-29T20:19:23.193Z,99617.90
2017-12-29T20:21:52.948Z,99615.72
2017-12-29T20:24:22.358Z,99626.98
2017-12-29T20:26:52.380Z,99630.75
2017-12-29T20:29:21.675Z,99640.66
2017-12-29T20:31:51.197Z,99648.81
2017-12-29T20:34:19.780Z,99653.00
2017-12-29T20:36:48.175Z,99671.75
2017-12-29T20:39:16.699Z,99660.10
2017-12-29T20:41:45.534Z,99671.14
2017-12-29T20:44:13.953Z,99670.61
2017-12-29T20:46:42.354Z,99684.20
2017-12-29T20:49:10.747Z,99683.34
2017-12-29T20:51:39.942Z,99679.05
2017-12-29T20:54:08.252Z,99695.59
2017-12-29T20:56:36.765Z,99706.20
2017-12-29T20:59:05.120Z,99710.66
2017-12-29T21:01:33.441Z,99720.25
2017-12-29T21:04:02.498Z,99717.38
2017-12-29T21:06:31.486Z,99734.66
2017-12-29T21:08:59.943Z,99736.81
2017-12-29T21:11:28.242Z,99757.05
2017-12-29T21:13:57.353Z,99745.50
2017-12-29T21:16:26.529Z,99751.34
2017-12-29T21:18:55.075Z,99763.30
2017-12-29T21:21:23.388Z,99777.02
2017-12-29T21:23:53.561Z,99782.27
2017-12-29T21:26:22.765Z,99775.13
2017-12-29T21:28:51.082Z,99778.50
2017-12-29T21:31:20.339Z,99789.17
2017-12-29T21:33:49.561Z,99790.91
2017-12-29T21:36:18.719Z,99786.00
2017-12-29T21:38:47.835Z,99799.30
2017-12-29T21:41:16.259Z,99812.48
2017-12-29T21:43:44.653Z,99819.02
2017-12-29T21:46:13.779Z,99832.41
2017-12-29T21:48:42.886Z,99827.81
2017-12-29T21:51:12.236Z,99832.61
2017-12-29T21:53:40.614Z,99830.98
2017-12-29T21:56:09.031Z,99832.41
2017-12-29T21:58:37.448Z,99828.35
2017-12-29T22:01:05.835Z,99836.42
2017-12-29T22:03:34.180Z,99842.45
2017-12-29T22:06:02.763Z,99860.13
2017-12-29T22:08:31.131Z,99865.95
2017-12-29T22:10:59.454Z,99875.25
2017-12-29T22:13:28.530Z,99860.75
2017-12-29T22:15:57.689Z,99877.30
2017-12-29T22:18:26.993Z,99871.47
2017-12-29T22:20:55.454Z,99885.17
2017-12-29T22:23:23.943Z,99896.72
2017-12-29T22:25:52.394Z,99897.02
2017-12-29T22:28:20.875Z,99908.67
2017-12-29T22:30:50.031Z,99903.53
2017-12-29T22:33:18.449Z,99905.38
2017-12-29T22:35:47.701Z,99910.69
2017-12-29T22:38:16.033Z,99916.42
2017-12-29T22:40:44.493Z,99924.50
2017-12-29T22:43:12.909Z,99930.50
2017-12-29T22:45:42.140Z,99932.14
2017-12-29T22:48:10.515Z,99943.59
2017-12-29T22:50:38.862Z,99940.52
2017-12-29T22:53:07.253Z,99933.77
2017-12-29T22:55:35.632Z,99953.81
2017-12-29T22:58:04.549Z,99961.47
2017-12-29T23:00:32.903Z,99957.07
2017-12-29T23:03:01.288Z,99959.86
2017-12-29T23:05:29.645Z,99957.09
2017-12-29T23:07:58.045Z,99968.64
2017-12-29T23:10:26.867Z,99960.36
2017-12-29T23:12:55.258Z,99962.92
2017-12-29T23:15:23.574Z,99973.45
2017-12-29T23:17:51.905Z,99986.54
2017-12-29T23:20:20.326Z,99979.88
2017-12-29T23:22:48.751Z,99984.36
2017-12-29T23:25:17.091Z,99982.62
2017-12-29T23:27:45.395Z,99980.89
2017-12-29T23:30:13.733Z,99993.27
2017-12-29T23:32:42.091Z,99997.97
2017-12-29T23:35:10.511Z,100001.34
2017-12-29T23:37:39.201Z,100012.19
2017-12-29T23:40:07.603Z,100013.72
2017-12-29T23:42:35.989Z,100019.63
2017-12-29T23:45:04.336Z,100022.28
2017-12-29T23:47:32.647Z,100039.88
2017-12-29T23:50:01.023Z,100020.45
2017-12-29T23:52:29.374Z,100030.37
2017-12-29T23:54:57.730Z,100035.08
2017-12-29T23:57:26.831Z,100023.70
2017-12-29T23:59:55.925Z,100031.69
